KBOS Airport Information

Runway Information
Runway 04L Length 7861 ft width 150 ft
Elevation 14 ft Threshold 0 ft Heading 20
Runway 22R Length 7861 ft Width 150 ft
Elevation 15 ft Threshold 815 ft Heading 200
Runway 04R Length 10005 ft width 150 ft
Elevation 18 ft Threshold 1154 ft Heading 20
Runway 22L Length 10005 ft Width 150 ft
Elevation 16 ft Threshold 1199 ft Heading 200
Runway 09 Length 7000 ft width 150 ft
Elevation 17 ft Threshold 0 ft Heading 77
Runway 27 Length 7000 ft Width 150 ft
Elevation 15 ft Threshold 0 ft Heading 257
Runway 14 Length 5000 ft width 100 ft
Elevation 17 ft Threshold 0 ft Heading 125
Runway 32 Length 5000 ft Width 100 ft
Elevation 20 ft Threshold 0 ft Heading 305
Runway 15L Length 2557 ft width 100 ft
Elevation 15 ft Threshold 0 ft Heading 135
Runway 33R Length 2557 ft Width 100 ft
Elevation 14 ft Threshold 0 ft Heading 315
Runway 15R Length 10083 ft width 150 ft
Elevation 17 ft Threshold 880 ft Heading 135
Runway 33L Length 10083 ft Width 150 ft
Elevation 15 ft Threshold 0 ft Heading 315
Airport Frequencies
Type APP Name BOSTON APP Frequency 118.25 MHZ
Type ATIS Name ATIS Frequency 135 MHZ
Type CLD Name CLNC DEL Frequency 121.65 MHZ
Type DEP Name BOSTON DEP Frequency 133 MHZ
Type GND Name GND Frequency 121.9 MHZ
Type GTE Name GATE Frequency 134.05 MHZ
Type RDO Name BRIDGEPORT Frequency 122.4 MHZ
Type TWR Name BOSTON TWR Frequency 124.725 MHZ
Type UNIC Name UNICOM Frequency 122.95 MHZ
Airport Navaids
Type NDB Name Miltt Frequency 375 KHZ
Type VORTAC Name Boston Frequency 112700 KHZ
Type NDB Name Hullz Frequency 346 KHZ
Type NDB Name Lyndy Frequency 382 KHZ
Airport Weather Information & NOTAM
ADDS - METARS form results

(1543 UTC 25 June 2018)
 
METAR text: KBOS 251535Z 04017G23KT 10SM FEW012 BKN032 BKN039 18/14 A2995 RMK AO2 WSHFT 1515 T01780144
Conditions at: KBOS (BOSTON , MA, US) observed 1535 UTC 25 June 2018
Temperature: 17.8°C (64°F)
Dewpoint: 14.4°C (58°F) [RH = 80%]
Pressure (altimeter): 29.95 inches Hg (1014.3 mb)
Winds: from the NE (40 degrees) at 20 MPH (17 knots; 8.8 m/s)
gusting to 26 MPH (23 knots; 12.0 m/s)
Visibility: 10 or more miles (16+ km)
Ceiling: 3200 feet AGL
Clouds: few clouds at 1200 feet AGL
broken clouds at 3200 feet AGL
broken clouds at 3900 feet AGL
Weather: no significant weather observed at this time

METAR text: KBOS 251454Z 32015G22KT 10SM SCT023 BKN047 BKN065 23/14 A2990 RMK AO2 RAB1355E08 SLP126 P0000 60000 T02280144 53022
Conditions at: KBOS (BOSTON , MA, US) observed 1454 UTC 25 June 2018
Temperature: 22.8°C (73°F)
Dewpoint: 14.4°C (58°F) [RH = 59%]
Pressure (altimeter): 29.90 inches Hg (1012.6 mb)
[Sea-level pressure: 1012.6 mb]
Winds: from the NW (320 degrees) at 17 MPH (15 knots; 7.8 m/s)
gusting to 25 MPH (22 knots; 11.4 m/s)
Visibility: 10 or more miles (16+ km)
Ceiling: 4700 feet AGL
Clouds: scattered clouds at 2300 feet AGL
broken clouds at 4700 feet AGL
broken clouds at 6500 feet AGL
Weather: no significant weather observed at this time